createdAt,value
2018-12-30T00:00:15.942Z,21.53
2018-12-30T00:02:44.769Z,26.07
2018-12-30T00:05:14.516Z,26.23
2018-12-30T00:07:44.465Z,28.27
2018-12-30T00:10:13.333Z,16.20
2018-12-30T00:12:42.179Z,21.13
2018-12-30T00:15:11.426Z,22.40
2018-12-30T00:17:41.234Z,22.53
2018-12-30T00:20:10.216Z,19.27
2018-12-30T00:22:39.134Z,25.10
2018-12-30T00:25:09.493Z,25.87
2018-12-30T00:27:39.045Z,20.47
2018-12-30T00:30:09.475Z,26.67
2018-12-30T00:32:39.859Z,21.97
2018-12-30T00:35:10.324Z,21.23
2018-12-30T00:37:39.242Z,19.97
2018-12-30T00:40:08.324Z,23.40
2018-12-30T00:42:39.636Z,25.37
2018-12-30T00:45:08.788Z,16.33
2018-12-30T00:47:37.752Z,28.97
2018-12-30T00:50:06.648Z,17.40
2018-12-30T00:52:35.575Z,20.00
2018-12-30T00:55:04.791Z,22.60
2018-12-30T00:57:33.686Z,23.93
2018-12-30T01:00:02.634Z,23.23
2018-12-30T01:02:32.624Z,19.17
2018-12-30T01:05:03.496Z,23.00
2018-12-30T01:07:33.703Z,26.30
2018-12-30T01:10:02.721Z,16.70
2018-12-30T01:12:31.611Z,31.03
2018-12-30T01:15:02.145Z,19.33
2018-12-30T01:17:31.072Z,16.37
2018-12-30T01:20:01.615Z,26.53
2018-12-30T01:22:32.259Z,22.57
2018-12-30T01:25:02.241Z,13.47
2018-12-30T01:27:31.136Z,33.57
2018-12-30T01:29:59.945Z,15.13
2018-12-30T01:32:28.956Z,15.47
2018-12-30T01:34:58.629Z,18.03
2018-12-30T01:37:27.502Z,19.80
2018-12-30T01:39:57.665Z,29.97
2018-12-30T01:42:26.580Z,15.33
2018-12-30T01:44:55.538Z,24.70
2018-12-30T01:47:24.808Z,29.03
2018-12-30T01:49:53.765Z,24.07
2018-12-30T01:52:24.093Z,18.00
2018-12-30T01:54:53.114Z,16.90
2018-12-30T01:57:22.095Z,18.93
2018-12-30T01:59:50.908Z,8.73
2018-12-30T02:02:19.786Z,11.33
2018-12-30T02:04:48.686Z,14.80
2018-12-30T02:07:17.611Z,14.27
2018-12-30T02:09:47.999Z,10.03
2018-12-30T02:12:16.903Z,11.80
2018-12-30T02:14:45.728Z,13.00
2018-12-30T02:17:14.487Z,13.70
2018-12-30T02:19:46.096Z,8.67
2018-12-30T02:22:15.869Z,14.60
2018-12-30T02:24:45.141Z,5.80
2018-12-30T02:27:13.997Z,13.73
2018-12-30T02:29:42.875Z,18.00
2018-12-30T02:32:12.065Z,8.40
2018-12-30T02:34:42.292Z,14.87
2018-12-30T02:37:12.423Z,19.10
2018-12-30T02:39:42.656Z,16.10
2018-12-30T02:42:11.997Z,11.13
2018-12-30T02:44:40.937Z,27.90
2018-12-30T02:47:09.729Z,14.40
2018-12-30T02:49:38.673Z,24.27
2018-12-30T02:52:07.638Z,10.03
2018-12-30T02:54:36.444Z,11.50
2018-12-30T02:57:05.339Z,12.53
2018-12-30T02:59:34.249Z,18.37
2018-12-30T03:02:04.655Z,20.70
2018-12-30T03:04:33.590Z,17.17
2018-12-30T03:07:02.523Z,27.50
2018-12-30T03:09:31.380Z,11.27
2018-12-30T03:12:00.206Z,23.47
2018-12-30T03:14:29.077Z,17.73
2018-12-30T03:16:57.959Z,17.80
2018-12-30T03:19:26.857Z,23.20
2018-12-30T03:21:59.303Z,18.63
2018-12-30T03:24:27.674Z,17.40
2018-12-30T03:26:56.482Z,12.80
2018-12-30T03:29:25.393Z,18.20
2018-12-30T03:31:54.253Z,26.60
2018-12-30T03:34:23.158Z,13.27
2018-12-30T03:36:52.129Z,12.53
2018-12-30T03:39:20.975Z,20.80
2018-12-30T03:41:49.969Z,11.97
2018-12-30T03:44:18.789Z,12.40
2018-12-30T03:46:47.728Z,22.27
2018-12-30T03:49:16.693Z,23.53
2018-12-30T03:51:45.734Z,27.23
2018-12-30T03:54:14.825Z,12.20
2018-12-30T03:56:43.709Z,15.03
2018-12-30T03:59:12.526Z,21.00
2018-12-30T04:01:41.465Z,19.43
2018-12-30T04:04:10.436Z,34.90
2018-12-30T04:06:39.520Z,11.83
2018-12-30T04:09:08.504Z,16.43
2018-12-30T04:11:38.752Z,14.27
2018-12-30T04:14:09.981Z,17.77
2018-12-30T04:16:38.872Z,13.27
2018-12-30T04:19:08.583Z,18.70
2018-12-30T04:21:37.497Z,22.97
2018-12-30T04:24:06.368Z,11.33
2018-12-30T04:26:35.233Z,20.57
2018-12-30T04:29:04.196Z,12.80
2018-12-30T04:31:33.633Z,19.30
2018-12-30T04:34:02.415Z,14.13
2018-12-30T04:36:35.684Z,16.63
2018-12-30T04:39:06.135Z,19.10
2018-12-30T04:41:35.039Z,16.80
2018-12-30T04:44:03.871Z,18.30
2018-12-30T04:46:34.141Z,23.60
2018-12-30T04:49:04.572Z,22.07
2018-12-30T04:51:33.454Z,15.13
2018-12-30T04:54:02.324Z,36.53
2018-12-30T04:56:31.204Z,11.80
2018-12-30T04:59:00.129Z,17.17
2018-12-30T05:01:29.112Z,22.57
2018-12-30T05:04:00.960Z,16.50
2018-12-30T05:06:30.993Z,18.20
2018-12-30T05:09:00.360Z,21.57
2018-12-30T05:11:29.256Z,15.23
2018-12-30T05:13:58.046Z,25.97
2018-12-30T05:16:26.966Z,22.03
2018-12-30T05:18:55.922Z,21.30
2018-12-30T05:21:24.937Z,16.40
2018-12-30T05:23:54.629Z,29.37
2018-12-30T05:26:23.553Z,16.50
2018-12-30T05:28:53.124Z,25.73
2018-12-30T05:31:22.159Z,25.03
2018-12-30T05:33:51.123Z,20.67
2018-12-30T05:36:20.132Z,19.70
2018-12-30T05:38:49.271Z,10.37
2018-12-30T05:41:18.233Z,28.07
2018-12-30T05:43:47.166Z,20.70
2018-12-30T05:46:16.030Z,17.23
2018-12-30T05:48:46.313Z,14.63
2018-12-30T05:51:15.854Z,19.67
2018-12-30T05:53:44.746Z,7.50
2018-12-30T05:56:15.068Z,12.70
2018-12-30T05:58:45.707Z,17.57
2018-12-30T06:01:17.378Z,27.30
2018-12-30T06:03:46.952Z,26.23
2018-12-30T06:06:16.126Z,22.77
2018-12-30T06:08:45.114Z,21.53
2018-12-30T06:11:14.028Z,21.30
2018-12-30T06:13:42.938Z,19.43
2018-12-30T06:16:12.052Z,17.63
2018-12-30T06:18:41.011Z,17.73
2018-12-30T06:21:12.277Z,26.17
2018-12-30T06:23:42.519Z,21.37
2018-12-30T06:26:11.603Z,14.23
2018-12-30T06:28:41.924Z,9.63
2018-12-30T06:31:11.144Z,9.53
2018-12-30T06:33:43.116Z,10.80
2018-12-30T06:36:11.968Z,11.47
2018-12-30T06:38:41.539Z,11.83
2018-12-30T06:41:11.031Z,13.73
2018-12-30T06:43:40.064Z,19.00
2018-12-30T06:46:09.072Z,24.80
2018-12-30T06:48:37.836Z,20.10
2018-12-30T06:51:07.094Z,10.00
2018-12-30T06:53:36.023Z,23.80
2018-12-30T06:56:04.915Z,15.77
2018-12-30T06:58:33.762Z,26.13
2018-12-30T07:01:02.962Z,22.30
2018-12-30T07:03:31.903Z,15.87
2018-12-30T07:06:05.288Z,22.10
2018-12-30T07:08:35.672Z,20.83
2018-12-30T07:11:05.955Z,22.03
2018-12-30T07:13:34.833Z,21.13
2018-12-30T07:16:04.862Z,14.53
2018-12-30T07:18:33.746Z,21.43
2018-12-30T07:21:03.995Z,15.00
2018-12-30T07:23:32.909Z,25.07
2018-12-30T07:26:01.916Z,19.80
2018-12-30T07:28:32.248Z,19.93
2018-12-30T07:31:01.522Z,12.83
2018-12-30T07:33:30.578Z,14.93
2018-12-30T07:36:01.063Z,27.47
2018-12-30T07:38:30.502Z,14.20
2018-12-30T07:41:00.903Z,17.67
2018-12-30T07:43:30.997Z,24.93
2018-12-30T07:46:01.376Z,16.70
2018-12-30T07:48:31.585Z,33.03
2018-12-30T07:51:00.562Z,19.23
2018-12-30T07:53:31.568Z,29.93
2018-12-30T07:56:01.986Z,19.40
2018-12-30T07:58:30.978Z,22.23
2018-12-30T08:01:00.841Z,25.67
2018-12-30T08:03:32.227Z,22.77
2018-12-30T08:06:01.129Z,27.70
2018-12-30T08:08:30.639Z,25.93
2018-12-30T08:10:59.613Z,17.90
2018-12-30T08:13:29.071Z,6.67
2018-12-30T08:15:57.981Z,27.13
2018-12-30T08:18:28.194Z,22.63
2018-12-30T08:20:57.122Z,15.90
2018-12-30T08:23:27.543Z,35.20
2018-12-30T08:25:57.938Z,25.57
2018-12-30T08:28:26.998Z,33.63
2018-12-30T08:30:56.127Z,20.67
2018-12-30T08:33:24.948Z,24.27
2018-12-30T08:35:54.425Z,25.53
2018-12-30T08:38:24.722Z,14.53
2018-12-30T08:40:54.831Z,18.47
2018-12-30T08:43:23.735Z,13.23
2018-12-30T08:45:54.837Z,22.80
2018-12-30T08:48:25.337Z,29.37
2018-12-30T08:50:54.285Z,27.60
2018-12-30T08:53:29.393Z,23.60
2018-12-30T08:55:55.372Z,25.67
2018-12-30T08:58:24.214Z,30.40
2018-12-30T09:00:53.136Z,12.70
2018-12-30T09:03:25.443Z,20.53
2018-12-30T09:05:54.356Z,21.90
2018-12-30T09:08:23.406Z,23.70
2018-12-30T09:10:52.303Z,15.80
2018-12-30T09:13:23.006Z,20.03
2018-12-30T09:15:51.914Z,19.47
2018-12-30T09:18:20.858Z,20.67
2018-12-30T09:20:49.723Z,18.80
2018-12-30T09:23:19.365Z,26.07
2018-12-30T09:25:48.244Z,14.40
2018-12-30T09:28:18.384Z,15.37
2018-12-30T09:30:48.799Z,21.63
2018-12-30T09:33:17.818Z,12.73
2018-12-30T09:35:49.679Z,12.60
2018-12-30T09:38:19.601Z,21.10
2018-12-30T09:40:48.862Z,26.50
2018-12-30T09:43:18.535Z,18.07
2018-12-30T09:45:47.460Z,23.67
2018-12-30T09:48:17.492Z,21.03
2018-12-30T09:50:47.872Z,20.67
2018-12-30T09:53:16.824Z,36.60
2018-12-30T09:55:45.960Z,18.63
2018-12-30T09:58:14.876Z,22.17
2018-12-30T10:00:43.831Z,11.93
2018-12-30T10:03:14.121Z,31.27
2018-12-30T10:05:43.098Z,14.97
2018-12-30T10:08:12.850Z,15.47
2018-12-30T10:10:41.796Z,11.23
2018-12-30T10:13:10.786Z,14.33
2018-12-30T10:15:39.696Z,27.23
2018-12-30T10:18:08.678Z,18.57
2018-12-30T10:20:37.564Z,7.00
2018-12-30T10:23:06.494Z,21.77
2018-12-30T10:25:36.312Z,23.07
2018-12-30T10:28:06.080Z,16.10
2018-12-30T10:30:36.170Z,13.47
2018-12-30T10:33:05.240Z,15.73
2018-12-30T10:35:34.307Z,9.10
2018-12-30T10:38:03.886Z,23.83
2018-12-30T10:40:32.828Z,13.73
2018-12-30T10:43:01.688Z,7.23
2018-12-30T10:45:32.322Z,11.03
2018-12-30T10:48:02.174Z,11.90
2018-12-30T10:50:31.087Z,10.00
2018-12-30T10:53:00.062Z,13.90
2018-12-30T10:55:31.494Z,15.47
2018-12-30T10:58:00.459Z,11.17
2018-12-30T11:00:31.533Z,6.20
2018-12-30T11:03:01.232Z,8.03
2018-12-30T11:05:32.101Z,14.17
2018-12-30T11:08:01.608Z,7.50
2018-12-30T11:10:30.701Z,16.17
2018-12-30T11:13:00.323Z,18.60
2018-12-30T11:15:29.940Z,18.03
2018-12-30T11:17:58.922Z,13.10
2018-12-30T11:20:27.934Z,12.20
2018-12-30T11:22:58.344Z,10.27
2018-12-30T11:25:27.321Z,9.70
2018-12-30T11:27:58.118Z,8.20
2018-12-30T11:30:27.367Z,16.57
2018-12-30T11:32:56.273Z,17.37
2018-12-30T11:35:25.318Z,13.17
2018-12-30T11:37:54.255Z,16.97
2018-12-30T11:40:24.493Z,9.90
2018-12-30T11:42:53.464Z,9.33
2018-12-30T11:45:22.408Z,13.60
2018-12-30T11:47:53.821Z,6.93
2018-12-30T11:50:22.770Z,16.00
2018-12-30T11:52:51.645Z,9.80
2018-12-30T11:55:21.284Z,6.33
2018-12-30T11:57:52.584Z,15.93
2018-12-30T12:00:21.471Z,12.93
2018-12-30T12:02:50.452Z,8.90
2018-12-30T12:05:20.947Z,7.23
2018-12-30T12:07:49.783Z,21.50
2018-12-30T12:10:21.532Z,16.83
2018-12-30T12:12:52.689Z,11.30
2018-12-30T12:15:22.912Z,5.57
2018-12-30T12:17:52.076Z,6.53
2018-12-30T12:20:21.628Z,5.03
2018-12-30T12:22:50.727Z,11.17
2018-12-30T12:25:19.757Z,5.10
2018-12-30T12:27:49.768Z,11.10
2018-12-30T12:30:20.598Z,11.30
2018-12-30T12:32:49.567Z,11.57
2018-12-30T12:35:20.243Z,8.17
2018-12-30T12:37:49.103Z,4.50
2018-12-30T12:40:18.191Z,14.20
2018-12-30T12:42:47.150Z,7.80
2018-12-30T12:45:17.267Z,12.97
2018-12-30T12:47:46.362Z,8.87
2018-12-30T12:50:16.487Z,5.80
2018-12-30T12:52:46.984Z,10.27
2018-12-30T12:55:17.110Z,14.23
2018-12-30T12:57:46.932Z,8.87
2018-12-30T13:00:15.964Z,7.37
2018-12-30T13:02:45.438Z,18.07
2018-12-30T13:05:15.763Z,14.03
2018-12-30T13:07:44.688Z,9.90
2018-12-30T13:10:16.408Z,3.43
2018-12-30T13:12:45.607Z,9.97
2018-12-30T13:15:14.533Z,12.10
2018-12-30T13:17:46.662Z,28.40
2018-12-30T13:20:15.568Z,16.00
2018-12-30T13:22:46.310Z,8.33
2018-12-30T13:25:16.148Z,12.17
2018-12-30T13:27:45.188Z,14.03
2018-12-30T13:30:14.296Z,6.90
2018-12-30T13:32:46.081Z,14.23
2018-12-30T13:35:16.414Z,5.60
2018-12-30T13:37:47.880Z,18.73
2018-12-30T13:40:16.903Z,15.53
2018-12-30T13:42:46.596Z,15.37
2018-12-30T13:45:15.938Z,14.20
2018-12-30T13:47:46.583Z,13.70
2018-12-30T13:50:15.896Z,16.77
2018-12-30T13:52:45.494Z,18.53
2018-12-30T13:55:15.187Z,13.90
2018-12-30T13:57:44.191Z,17.60
2018-12-30T14:00:17.568Z,12.03
2018-12-30T14:02:48.541Z,15.37
2018-12-30T14:05:18.808Z,14.43
2018-12-30T14:07:48.273Z,8.80
2018-12-30T14:10:18.817Z,11.63
2018-12-30T14:12:47.940Z,14.43
2018-12-30T14:15:18.576Z,21.10
2018-12-30T14:17:47.506Z,6.80
2018-12-30T14:20:26.738Z,14.53
2018-12-30T14:22:48.039Z,12.90
2018-12-30T14:25:16.919Z,15.27
2018-12-30T14:27:45.873Z,16.33
2018-12-30T14:30:17.324Z,23.93
2018-12-30T14:32:47.873Z,10.37
2018-12-30T14:35:16.842Z,10.77
2018-12-30T14:37:45.789Z,15.97
2018-12-30T14:40:16.277Z,23.40
2018-12-30T14:42:45.206Z,11.73
2018-12-30T14:45:15.506Z,15.23
2018-12-30T14:47:44.705Z,11.67
2018-12-30T14:50:15.058Z,13.80
2018-12-30T14:52:44.188Z,19.87
2018-12-30T14:55:13.061Z,9.43
2018-12-30T14:57:42.670Z,15.73
2018-12-30T15:00:12.900Z,10.67
2018-12-30T15:02:42.539Z,4.87
2018-12-30T15:05:11.607Z,13.87
2018-12-30T15:07:41.027Z,8.10
2018-12-30T15:10:11.354Z,6.10
2018-12-30T15:12:41.126Z,6.03
2018-12-30T15:15:11.247Z,7.47
2018-12-30T15:17:40.309Z,8.13
2018-12-30T15:20:11.414Z,20.73
2018-12-30T15:22:41.218Z,16.67
2018-12-30T15:25:12.226Z,17.17
2018-12-30T15:27:41.159Z,11.47
2018-12-30T15:30:11.008Z,12.23
2018-12-30T15:32:39.997Z,14.40
2018-12-30T15:35:10.766Z,8.73
2018-12-30T15:37:40.419Z,10.63
2018-12-30T15:40:09.305Z,17.03
2018-12-30T15:42:42.114Z,14.80
2018-12-30T15:45:11.723Z,13.53
2018-12-30T15:47:40.821Z,8.77
2018-12-30T15:50:11.920Z,8.00
2018-12-30T15:52:45.201Z,5.87
2018-12-30T15:55:19.430Z,12.10
2018-12-30T15:57:46.356Z,11.30
2018-12-30T16:00:15.422Z,9.20
2018-12-30T16:02:46.271Z,15.80
2018-12-30T16:05:17.171Z,27.33
2018-12-30T16:07:45.811Z,14.13
2018-12-30T16:10:15.021Z,7.73
2018-12-30T16:12:43.987Z,14.20
2018-12-30T16:15:15.159Z,12.10
2018-12-30T16:17:45.525Z,15.80
2018-12-30T16:20:15.322Z,5.70
2018-12-30T16:22:44.234Z,6.43
2018-12-30T16:25:13.225Z,17.83
2018-12-30T16:27:44.556Z,19.93
2018-12-30T16:30:14.095Z,22.80
2018-12-30T16:32:44.408Z,17.40
2018-12-30T16:35:13.807Z,9.97
2018-12-30T16:37:44.223Z,20.27
2018-12-30T16:40:13.225Z,11.23
2018-12-30T16:42:42.091Z,16.53
2018-12-30T16:45:11.139Z,18.33
2018-12-30T16:47:41.959Z,14.03
2018-12-30T16:50:11.038Z,19.37
2018-12-30T16:52:40.124Z,20.27
2018-12-30T16:55:09.120Z,29.23
2018-12-30T16:57:38.008Z,25.10
2018-12-30T17:00:10.011Z,25.17
2018-12-30T17:02:38.961Z,13.63
2018-12-30T17:05:10.697Z,26.40
2018-12-30T17:07:40.169Z,20.80
2018-12-30T17:10:11.515Z,27.10
2018-12-30T17:12:40.587Z,32.50
2018-12-30T17:15:10.686Z,20.17
2018-12-30T17:17:39.651Z,28.90
2018-12-30T17:20:10.159Z,23.30
2018-12-30T17:22:39.100Z,17.07
2018-12-30T17:25:10.001Z,18.83
2018-12-30T17:27:38.989Z,29.27
2018-12-30T17:30:10.815Z,24.77
2018-12-30T17:32:40.213Z,14.60
2018-12-30T17:35:09.299Z,24.83
2018-12-30T17:37:40.646Z,15.50
2018-12-30T17:40:12.656Z,22.13
2018-12-30T17:42:41.627Z,26.70
2018-12-30T17:45:10.522Z,34.77
2018-12-30T17:47:40.873Z,40.33
2018-12-30T17:50:10.425Z,23.57
2018-12-30T17:52:40.808Z,34.70
2018-12-30T17:55:11.391Z,29.90
2018-12-30T17:57:40.214Z,35.53
2018-12-30T18:00:09.803Z,29.30
2018-12-30T18:02:42.446Z,34.87
2018-12-30T18:05:11.335Z,38.50
2018-12-30T18:07:41.534Z,45.73
2018-12-30T18:10:11.251Z,39.80
2018-12-30T18:12:40.174Z,33.30
2018-12-30T18:15:10.526Z,40.07
2018-12-30T18:17:41.558Z,44.50
2018-12-30T18:20:10.842Z,41.07
2018-12-30T18:22:40.507Z,47.63
2018-12-30T18:25:10.874Z,39.77
2018-12-30T18:27:39.865Z,35.27
2018-12-30T18:30:13.338Z,44.47
2018-12-30T18:32:43.474Z,40.23
2018-12-30T18:35:12.271Z,40.63
2018-12-30T18:37:41.222Z,54.53
2018-12-30T18:40:10.160Z,55.63
2018-12-30T18:42:39.244Z,52.17
2018-12-30T18:45:10.303Z,53.70
2018-12-30T18:47:39.431Z,50.67
2018-12-30T18:50:09.762Z,58.93
2018-12-30T18:52:40.176Z,62.30
2018-12-30T18:55:10.810Z,48.70
2018-12-30T18:57:41.758Z,43.87
2018-12-30T19:00:13.739Z,55.63
2018-12-30T19:02:44.223Z,43.37
2018-12-30T19:05:13.353Z,47.63
2018-12-30T19:07:42.775Z,57.70
2018-12-30T19:10:13.421Z,49.27
2018-12-30T19:12:42.476Z,54.77
2018-12-30T19:15:11.442Z,46.87
2018-12-30T19:17:40.487Z,52.20
2018-12-30T19:20:10.328Z,53.57
2018-12-30T19:22:40.187Z,45.67
2018-12-30T19:25:09.256Z,51.87
2018-12-30T19:27:38.290Z,43.37
2018-12-30T19:30:10.580Z,51.23
2018-12-30T19:32:40.597Z,52.77
2018-12-30T19:35:09.740Z,43.30
2018-12-30T19:37:38.754Z,52.53
2018-12-30T19:40:10.149Z,57.27
2018-12-30T19:42:39.137Z,43.87
2018-12-30T19:45:08.154Z,44.17
2018-12-30T19:47:39.031Z,54.07
2018-12-30T19:50:08.182Z,54.17
2018-12-30T19:52:37.170Z,55.40
2018-12-30T19:55:07.558Z,56.07
2018-12-30T19:57:36.996Z,71.40
2018-12-30T20:00:12.933Z,78.20
2018-12-30T20:02:42.511Z,78.63
2018-12-30T20:05:11.647Z,64.00
2018-12-30T20:07:42.252Z,61.00
2018-12-30T20:10:13.046Z,70.17
2018-12-30T20:12:43.722Z,63.97
2018-12-30T20:15:14.657Z,67.57
2018-12-30T20:17:43.482Z,64.87
2018-12-30T20:20:15.581Z,80.70
2018-12-30T20:22:45.496Z,64.53
2018-12-30T20:25:14.450Z,69.40
2018-12-30T20:27:43.335Z,73.23
2018-12-30T20:30:12.623Z,91.17
2018-12-30T20:32:42.589Z,92.23
2018-12-30T20:35:11.662Z,82.33
2018-12-30T20:37:44.050Z,74.63
2018-12-30T20:40:13.186Z,70.23
2018-12-30T20:42:42.446Z,78.47
2018-12-30T20:45:11.433Z,80.70
2018-12-30T20:47:40.437Z,80.37
2018-12-30T20:50:09.380Z,75.50
2018-12-30T20:52:38.330Z,79.80
2018-12-30T20:55:07.379Z,75.50
2018-12-30T20:57:37.025Z,68.43
2018-12-30T21:00:08.538Z,78.80
2018-12-30T21:02:37.416Z,77.50
2018-12-30T21:05:08.158Z,84.13
2018-12-30T21:07:37.123Z,76.93
2018-12-30T21:10:07.609Z,84.40
2018-12-30T21:12:39.582Z,76.37
2018-12-30T21:15:08.611Z,75.57
2018-12-30T21:17:37.676Z,77.20
2018-12-30T21:20:08.471Z,67.77
2018-12-30T21:22:38.908Z,67.33
2018-12-30T21:25:11.797Z,72.90
2018-12-30T21:27:40.649Z,69.97
2018-12-30T21:30:10.489Z,72.10
2018-12-30T21:32:39.689Z,74.83
2018-12-30T21:35:08.769Z,73.47
2018-12-30T21:37:37.677Z,69.60
2018-12-30T21:40:09.522Z,77.13
2018-12-30T21:42:43.708Z,76.90
2018-12-30T21:45:09.409Z,75.20
2018-12-30T21:47:38.694Z,79.43
2018-12-30T21:50:08.470Z,88.60
2018-12-30T21:52:37.485Z,79.13
2018-12-30T21:55:06.778Z,75.33
2018-12-30T21:57:36.574Z,79.90
2018-12-30T22:00:09.874Z,84.33
2018-12-30T22:02:41.842Z,86.60
2018-12-30T22:05:10.516Z,82.93
2018-12-30T22:07:40.135Z,85.63
2018-12-30T22:10:17.130Z,88.70
2018-12-30T22:12:42.323Z,93.00
2018-12-30T22:15:11.210Z,83.40
2018-12-30T22:17:40.182Z,79.50
2018-12-30T22:20:09.422Z,81.20
2018-12-30T22:22:38.359Z,76.87
2018-12-30T22:25:10.232Z,78.90
2018-12-30T22:27:39.146Z,75.70
2018-12-30T22:30:09.793Z,85.80
2018-12-30T22:32:40.048Z,82.57
2018-12-30T22:35:09.593Z,82.43
2018-12-30T22:37:40.036Z,99.13
2018-12-30T22:40:09.319Z,87.57
2018-12-30T22:42:38.265Z,83.03
2018-12-30T22:45:07.365Z,96.37
2018-12-30T22:47:37.648Z,81.93
2018-12-30T22:50:07.968Z,97.03
2018-12-30T22:52:36.879Z,82.67
2018-12-30T22:55:06.317Z,90.60
2018-12-30T22:57:35.223Z,84.30
2018-12-30T23:00:06.727Z,95.97
2018-12-30T23:02:35.639Z,80.23
2018-12-30T23:05:04.950Z,81.73
2018-12-30T23:07:33.983Z,84.07
2018-12-30T23:10:03.245Z,89.83
2018-12-30T23:12:32.355Z,88.43
2018-12-30T23:15:01.196Z,85.53
2018-12-30T23:17:30.233Z,78.30
2018-12-30T23:19:59.121Z,68.73
2018-12-30T23:22:28.303Z,77.37
2018-12-30T23:24:57.202Z,76.67
2018-12-30T23:27:27.302Z,63.70
2018-12-30T23:29:56.240Z,67.57
2018-12-30T23:32:26.714Z,65.33
2018-12-30T23:34:57.393Z,67.97
2018-12-30T23:37:26.366Z,60.57
2018-12-30T23:39:55.597Z,55.97
2018-12-30T23:42:24.637Z,53.03
2018-12-30T23:44:53.544Z,51.10
2018-12-30T23:47:22.621Z,51.37
2018-12-30T23:49:51.488Z,51.27
2018-12-30T23:52:20.331Z,51.53
2018-12-30T23:54:49.239Z,48.50
2018-12-30T23:57:18.154Z,50.47
2018-12-30T23:59:48.556Z,49.93
